sensor_id;sensor_type;location;lat;lon;timestamp;P1;durP1;ratioP1;P2;durP2;ratioP2
24547;SDS011;12713;51.624;4.924;2023-11-19T00:00:38;21.67;;;10.82;;
24547;SDS011;12713;51.624;4.924;2023-11-19T00:03:04;21.70;;;10.65;;
24547;SDS011;12713;51.624;4.924;2023-11-19T00:05:31;20.55;;;8.98;;
24547;SDS011;12713;51.624;4.924;2023-11-19T00:07:57;26.63;;;9.25;;
24547;SDS011;12713;51.624;4.924;2023-11-19T00:10:23;19.70;;;7.88;;
24547;SDS011;12713;51.624;4.924;2023-11-19T00:12:49;26.98;;;8.18;;
24547;SDS011;12713;51.624;4.924;2023-11-19T00:15:16;22.70;;;7.55;;
24547;SDS011;12713;51.624;4.924;2023-11-19T00:17:44;29.88;;;7.88;;
24547;SDS011;12713;51.624;4.924;2023-11-19T00:22:39;22.10;;;7.10;;
24547;SDS011;12713;51.624;4.924;2023-11-19T00:25:06;19.15;;;8.60;;
24547;SDS011;12713;51.624;4.924;2023-11-19T00:27:33;20.63;;;6.97;;
24547;SDS011;12713;51.624;4.924;2023-11-19T00:29:59;21.27;;;7.70;;
24547;SDS011;12713;51.624;4.924;2023-11-19T00:32:25;22.73;;;7.20;;
24547;SDS011;12713;51.624;4.924;2023-11-19T00:34:56;25.52;;;7.43;;
24547;SDS011;12713;51.624;4.924;2023-11-19T00:37:22;24.92;;;7.47;;
24547;SDS011;12713;51.624;4.924;2023-11-19T00:39:51;27.63;;;8.38;;
24547;SDS011;12713;51.624;4.924;2023-11-19T00:42:17;27.00;;;7.90;;
24547;SDS011;12713;51.624;4.924;2023-11-19T00:44:43;28.83;;;8.27;;
24547;SDS011;12713;51.624;4.924;2023-11-19T00:47:10;34.13;;;10.93;;
24547;SDS011;12713;51.624;4.924;2023-11-19T00:49:36;18.50;;;6.20;;
24547;SDS011;12713;51.624;4.924;2023-11-19T00:52:05;23.05;;;5.18;;
24547;SDS011;12713;51.624;4.924;2023-11-19T00:54:31;21.98;;;5.20;;
24547;SDS011;12713;51.624;4.924;2023-11-19T00:56:57;18.48;;;5.40;;
24547;SDS011;12713;51.624;4.924;2023-11-19T00:59:23;25.95;;;6.55;;
24547;SDS011;12713;51.624;4.924;2023-11-19T01:01:53;26.95;;;9.13;;
24547;SDS011;12713;51.624;4.924;2023-11-19T01:04:20;35.72;;;6.00;;
24547;SDS011;12713;51.624;4.924;2023-11-19T01:06:46;20.48;;;4.93;;
24547;SDS011;12713;51.624;4.924;2023-11-19T01:09:12;23.63;;;4.75;;
24547;SDS011;12713;51.624;4.924;2023-11-19T01:11:41;20.45;;;4.80;;
24547;SDS011;12713;51.624;4.924;2023-11-19T01:14:07;29.13;;;5.28;;
24547;SDS011;12713;51.624;4.924;2023-11-19T01:16:33;29.80;;;5.95;;
24547;SDS011;12713;51.624;4.924;2023-11-19T01:18:59;27.42;;;5.25;;
24547;SDS011;12713;51.624;4.924;2023-11-19T01:21:29;30.70;;;6.43;;
24547;SDS011;12713;51.624;4.924;2023-11-19T01:23:58;33.67;;;6.20;;
24547;SDS011;12713;51.624;4.924;2023-11-19T01:26:24;39.83;;;5.93;;
24547;SDS011;12713;51.624;4.924;2023-11-19T01:29:00;38.95;;;5.80;;
24547;SDS011;12713;51.624;4.924;2023-11-19T01:31:26;33.80;;;5.50;;
24547;SDS011;12713;51.624;4.924;2023-11-19T01:33:52;31.40;;;5.57;;
24547;SDS011;12713;51.624;4.924;2023-11-19T01:36:18;42.15;;;6.82;;
24547;SDS011;12713;51.624;4.924;2023-11-19T01:38:45;30.05;;;5.43;;
24547;SDS011;12713;51.624;4.924;2023-11-19T01:41:11;31.95;;;6.47;;
24547;SDS011;12713;51.624;4.924;2023-11-19T01:43:38;30.33;;;5.85;;
24547;SDS011;12713;51.624;4.924;2023-11-19T01:46:07;35.03;;;6.70;;
24547;SDS011;12713;51.624;4.924;2023-11-19T01:48:39;34.53;;;5.57;;
24547;SDS011;12713;51.624;4.924;2023-11-19T01:51:06;24.75;;;5.38;;
24547;SDS011;12713;51.624;4.924;2023-11-19T01:53:34;34.40;;;5.53;;
24547;SDS011;12713;51.624;4.924;2023-11-19T01:56:01;36.00;;;5.55;;
24547;SDS011;12713;51.624;4.924;2023-11-19T01:58:27;31.23;;;5.88;;
24547;SDS011;12713;51.624;4.924;2023-11-19T02:00:55;34.97;;;6.80;;
24547;SDS011;12713;51.624;4.924;2023-11-19T02:03:22;32.17;;;6.18;;
24547;SDS011;12713;51.624;4.924;2023-11-19T02:05:53;34.10;;;6.03;;
24547;SDS011;12713;51.624;4.924;2023-11-19T02:08:19;33.45;;;6.10;;
24547;SDS011;12713;51.624;4.924;2023-11-19T02:10:45;38.85;;;6.65;;
24547;SDS011;12713;51.624;4.924;2023-11-19T02:13:14;43.35;;;6.07;;
24547;SDS011;12713;51.624;4.924;2023-11-19T02:15:41;33.95;;;6.53;;
24547;SDS011;12713;51.624;4.924;2023-11-19T02:18:20;43.30;;;7.43;;
24547;SDS011;12713;51.624;4.924;2023-11-19T02:20:47;37.30;;;7.18;;
24547;SDS011;12713;51.624;4.924;2023-11-19T02:23:17;32.00;;;5.97;;
24547;SDS011;12713;51.624;4.924;2023-11-19T02:25:46;34.15;;;6.60;;
24547;SDS011;12713;51.624;4.924;2023-11-19T02:28:14;36.83;;;6.80;;
24547;SDS011;12713;51.624;4.924;2023-11-19T02:30:41;39.30;;;7.43;;
24547;SDS011;12713;51.624;4.924;2023-11-19T02:33:07;33.85;;;6.82;;
24547;SDS011;12713;51.624;4.924;2023-11-19T02:35:37;33.15;;;6.03;;
24547;SDS011;12713;51.624;4.924;2023-11-19T02:38:05;33.88;;;6.45;;
24547;SDS011;12713;51.624;4.924;2023-11-19T02:40:35;33.80;;;6.90;;
24547;SDS011;12713;51.624;4.924;2023-11-19T02:43:01;36.58;;;6.55;;
24547;SDS011;12713;51.624;4.924;2023-11-19T02:45:32;37.92;;;6.95;;
24547;SDS011;12713;51.624;4.924;2023-11-19T02:48:00;36.47;;;6.65;;
24547;SDS011;12713;51.624;4.924;2023-11-19T02:50:31;36.15;;;6.88;;
24547;SDS011;12713;51.624;4.924;2023-11-19T02:52:57;38.38;;;6.60;;
24547;SDS011;12713;51.624;4.924;2023-11-19T02:55:26;42.97;;;6.90;;
24547;SDS011;12713;51.624;4.924;2023-11-19T02:57:58;36.13;;;7.57;;
24547;SDS011;12713;51.624;4.924;2023-11-19T03:00:25;52.13;;;8.52;;
24547;SDS011;12713;51.624;4.924;2023-11-19T03:03:00;38.15;;;6.05;;
24547;SDS011;12713;51.624;4.924;2023-11-19T03:05:45;45.83;;;7.35;;
24547;SDS011;12713;51.624;4.924;2023-11-19T03:08:11;34.15;;;7.93;;
24547;SDS011;12713;51.624;4.924;2023-11-19T03:10:37;44.22;;;7.88;;
24547;SDS011;12713;51.624;4.924;2023-11-19T03:13:04;48.30;;;8.57;;
24547;SDS011;12713;51.624;4.924;2023-11-19T03:15:30;43.28;;;6.95;;
24547;SDS011;12713;51.624;4.924;2023-11-19T03:17:56;39.45;;;7.45;;
24547;SDS011;12713;51.624;4.924;2023-11-19T03:20:22;43.05;;;7.20;;
24547;SDS011;12713;51.624;4.924;2023-11-19T03:22:50;42.22;;;7.60;;
24547;SDS011;12713;51.624;4.924;2023-11-19T03:25:17;35.67;;;6.80;;
24547;SDS011;12713;51.624;4.924;2023-11-19T03:27:43;37.92;;;6.43;;
24547;SDS011;12713;51.624;4.924;2023-11-19T03:30:10;43.72;;;7.10;;
24547;SDS011;12713;51.624;4.924;2023-11-19T03:32:39;41.30;;;7.05;;
24547;SDS011;12713;51.624;4.924;2023-11-19T03:35:05;42.55;;;8.75;;
24547;SDS011;12713;51.624;4.924;2023-11-19T03:37:34;32.10;;;7.40;;
24547;SDS011;12713;51.624;4.924;2023-11-19T03:40:01;47.45;;;7.75;;
24547;SDS011;12713;51.624;4.924;2023-11-19T03:42:27;43.90;;;7.80;;
24547;SDS011;12713;51.624;4.924;2023-11-19T03:45:00;38.25;;;7.50;;
24547;SDS011;12713;51.624;4.924;2023-11-19T03:47:26;49.33;;;9.80;;
24547;SDS011;12713;51.624;4.924;2023-11-19T03:49:52;50.78;;;8.10;;
24547;SDS011;12713;51.624;4.924;2023-11-19T03:52:18;42.75;;;8.15;;
24547;SDS011;12713;51.624;4.924;2023-11-19T03:54:44;48.38;;;8.30;;
24547;SDS011;12713;51.624;4.924;2023-11-19T03:57:11;39.25;;;8.05;;
24547;SDS011;12713;51.624;4.924;2023-11-19T03:59:37;48.20;;;8.82;;
24547;SDS011;12713;51.624;4.924;2023-11-19T04:02:03;44.85;;;8.05;;
24547;SDS011;12713;51.624;4.924;2023-11-19T04:04:31;54.67;;;9.38;;
24547;SDS011;12713;51.624;4.924;2023-11-19T04:07:00;36.67;;;6.80;;
24547;SDS011;12713;51.624;4.924;2023-11-19T04:09:28;33.20;;;6.78;;
24547;SDS011;12713;51.624;4.924;2023-11-19T04:11:55;45.47;;;8.13;;
24547;SDS011;12713;51.624;4.924;2023-11-19T04:14:21;46.90;;;8.23;;
24547;SDS011;12713;51.624;4.924;2023-11-19T04:16:49;46.88;;;8.05;;
24547;SDS011;12713;51.624;4.924;2023-11-19T04:19:16;44.80;;;7.57;;
24547;SDS011;12713;51.624;4.924;2023-11-19T04:21:42;42.30;;;7.72;;
24547;SDS011;12713;51.624;4.924;2023-11-19T04:24:09;41.78;;;7.28;;
24547;SDS011;12713;51.624;4.924;2023-11-19T04:26:41;41.58;;;7.28;;
24547;SDS011;12713;51.624;4.924;2023-11-19T04:29:14;42.58;;;7.75;;
24547;SDS011;12713;51.624;4.924;2023-11-19T04:31:40;48.60;;;7.57;;
24547;SDS011;12713;51.624;4.924;2023-11-19T04:34:07;43.50;;;7.10;;
24547;SDS011;12713;51.624;4.924;2023-11-19T04:36:33;47.33;;;7.72;;
24547;SDS011;12713;51.624;4.924;2023-11-19T04:39:00;42.30;;;7.65;;
24547;SDS011;12713;51.624;4.924;2023-11-19T04:41:26;42.13;;;8.13;;
24547;SDS011;12713;51.624;4.924;2023-11-19T04:43:53;46.20;;;8.20;;
24547;SDS011;12713;51.624;4.924;2023-11-19T04:46:19;43.08;;;7.05;;
24547;SDS011;12713;51.624;4.924;2023-11-19T04:48:45;43.22;;;7.53;;
24547;SDS011;12713;51.624;4.924;2023-11-19T04:51:11;51.53;;;9.07;;
24547;SDS011;12713;51.624;4.924;2023-11-19T04:53:37;37.85;;;7.80;;
24547;SDS011;12713;51.624;4.924;2023-11-19T04:56:10;48.58;;;8.50;;
24547;SDS011;12713;51.624;4.924;2023-11-19T04:58:36;41.50;;;7.78;;
24547;SDS011;12713;51.624;4.924;2023-11-19T05:01:05;40.95;;;7.00;;
24547;SDS011;12713;51.624;4.924;2023-11-19T05:03:31;38.72;;;7.63;;
24547;SDS011;12713;51.624;4.924;2023-11-19T05:06:05;50.10;;;8.38;;
24547;SDS011;12713;51.624;4.924;2023-11-19T05:08:37;51.63;;;7.68;;
24547;SDS011;12713;51.624;4.924;2023-11-19T05:11:07;37.63;;;7.47;;
24547;SDS011;12713;51.624;4.924;2023-11-19T05:13:35;40.20;;;7.65;;
24547;SDS011;12713;51.624;4.924;2023-11-19T05:16:01;51.97;;;8.50;;
24547;SDS011;12713;51.624;4.924;2023-11-19T05:18:27;47.60;;;8.07;;
24547;SDS011;12713;51.624;4.924;2023-11-19T05:20:53;42.67;;;7.22;;
24547;SDS011;12713;51.624;4.924;2023-11-19T05:23:19;41.00;;;7.97;;
24547;SDS011;12713;51.624;4.924;2023-11-19T05:25:45;50.70;;;9.20;;
24547;SDS011;12713;51.624;4.924;2023-11-19T05:28:12;40.60;;;7.47;;
24547;SDS011;12713;51.624;4.924;2023-11-19T05:30:39;54.42;;;8.45;;
24547;SDS011;12713;51.624;4.924;2023-11-19T05:33:05;41.25;;;8.85;;
24547;SDS011;12713;51.624;4.924;2023-11-19T05:35:33;51.38;;;9.40;;
24547;SDS011;12713;51.624;4.924;2023-11-19T05:38:00;40.78;;;8.35;;
24547;SDS011;12713;51.624;4.924;2023-11-19T05:40:27;47.25;;;9.20;;
24547;SDS011;12713;51.624;4.924;2023-11-19T05:42:53;43.63;;;8.05;;
24547;SDS011;12713;51.624;4.924;2023-11-19T05:45:19;42.17;;;7.47;;
24547;SDS011;12713;51.624;4.924;2023-11-19T05:47:45;47.53;;;7.65;;
24547;SDS011;12713;51.624;4.924;2023-11-19T05:50:11;52.17;;;8.85;;
24547;SDS011;12713;51.624;4.924;2023-11-19T05:52:37;48.33;;;8.40;;
24547;SDS011;12713;51.624;4.924;2023-11-19T05:55:03;43.63;;;8.57;;
24547;SDS011;12713;51.624;4.924;2023-11-19T05:57:34;55.35;;;7.93;;
24547;SDS011;12713;51.624;4.924;2023-11-19T06:00:00;51.38;;;7.97;;
24547;SDS011;12713;51.624;4.924;2023-11-19T06:02:32;46.38;;;8.93;;
24547;SDS011;12713;51.624;4.924;2023-11-19T06:04:58;53.15;;;9.68;;
24547;SDS011;12713;51.624;4.924;2023-11-19T06:07:24;44.58;;;7.07;;
24547;SDS011;12713;51.624;4.924;2023-11-19T06:09:50;45.70;;;7.43;;
24547;SDS011;12713;51.624;4.924;2023-11-19T06:12:17;46.03;;;8.68;;
24547;SDS011;12713;51.624;4.924;2023-11-19T06:14:43;44.80;;;7.45;;
24547;SDS011;12713;51.624;4.924;2023-11-19T06:17:11;55.92;;;8.27;;
24547;SDS011;12713;51.624;4.924;2023-11-19T06:19:37;42.10;;;7.85;;
24547;SDS011;12713;51.624;4.924;2023-11-19T06:22:03;41.95;;;7.53;;
24547;SDS011;12713;51.624;4.924;2023-11-19T06:24:29;58.28;;;8.90;;
24547;SDS011;12713;51.624;4.924;2023-11-19T06:26:58;42.97;;;8.45;;
24547;SDS011;12713;51.624;4.924;2023-11-19T06:29:24;46.97;;;8.70;;
24547;SDS011;12713;51.624;4.924;2023-11-19T06:31:53;44.42;;;8.07;;
24547;SDS011;12713;51.624;4.924;2023-11-19T06:34:19;38.97;;;7.95;;
24547;SDS011;12713;51.624;4.924;2023-11-19T06:36:45;50.97;;;8.00;;
24547;SDS011;12713;51.624;4.924;2023-11-19T06:39:11;48.60;;;8.65;;
24547;SDS011;12713;51.624;4.924;2023-11-19T06:41:37;53.00;;;9.32;;
24547;SDS011;12713;51.624;4.924;2023-11-19T06:44:04;48.35;;;8.32;;
24547;SDS011;12713;51.624;4.924;2023-11-19T06:46:30;40.58;;;6.95;;
24547;SDS011;12713;51.624;4.924;2023-11-19T06:48:57;43.00;;;8.43;;
24547;SDS011;12713;51.624;4.924;2023-11-19T06:51:23;53.50;;;8.48;;
24547;SDS011;12713;51.624;4.924;2023-11-19T06:53:52;42.70;;;8.27;;
24547;SDS011;12713;51.624;4.924;2023-11-19T06:56:23;48.22;;;9.43;;
24547;SDS011;12713;51.624;4.924;2023-11-19T06:58:49;37.60;;;7.60;;
24547;SDS011;12713;51.624;4.924;2023-11-19T07:01:18;48.03;;;7.28;;
24547;SDS011;12713;51.624;4.924;2023-11-19T07:03:47;42.75;;;8.52;;
24547;SDS011;12713;51.624;4.924;2023-11-19T07:06:13;57.08;;;9.48;;
24547;SDS011;12713;51.624;4.924;2023-11-19T07:08:43;46.25;;;7.18;;
24547;SDS011;12713;51.624;4.924;2023-11-19T07:11:12;47.15;;;7.40;;
24547;SDS011;12713;51.624;4.924;2023-11-19T07:13:40;52.70;;;7.10;;
24547;SDS011;12713;51.624;4.924;2023-11-19T07:16:09;47.88;;;7.45;;
24547;SDS011;12713;51.624;4.924;2023-11-19T07:18:35;39.03;;;7.50;;
24547;SDS011;12713;51.624;4.924;2023-11-19T07:21:04;35.10;;;7.30;;
24547;SDS011;12713;51.624;4.924;2023-11-19T07:23:30;41.65;;;7.22;;
24547;SDS011;12713;51.624;4.924;2023-11-19T07:25:59;51.92;;;10.15;;
24547;SDS011;12713;51.624;4.924;2023-11-19T07:28:25;41.80;;;8.10;;
24547;SDS011;12713;51.624;4.924;2023-11-19T07:30:53;42.10;;;7.38;;
24547;SDS011;12713;51.624;4.924;2023-11-19T07:33:21;42.80;;;7.72;;
24547;SDS011;12713;51.624;4.924;2023-11-19T07:35:47;55.88;;;8.73;;
24547;SDS011;12713;51.624;4.924;2023-11-19T07:38:13;38.15;;;6.75;;
24547;SDS011;12713;51.624;4.924;2023-11-19T07:40:39;36.88;;;7.82;;
24547;SDS011;12713;51.624;4.924;2023-11-19T07:43:08;44.90;;;9.07;;
24547;SDS011;12713;51.624;4.924;2023-11-19T07:45:34;45.03;;;7.78;;
24547;SDS011;12713;51.624;4.924;2023-11-19T07:48:03;37.78;;;8.27;;
24547;SDS011;12713;51.624;4.924;2023-11-19T07:50:32;37.72;;;7.10;;
24547;SDS011;12713;51.624;4.924;2023-11-19T07:52:58;43.70;;;7.90;;
24547;SDS011;12713;51.624;4.924;2023-11-19T07:55:27;47.70;;;7.50;;
24547;SDS011;12713;51.624;4.924;2023-11-19T07:57:53;41.35;;;6.55;;
24547;SDS011;12713;51.624;4.924;2023-11-19T08:00:19;40.08;;;8.40;;
24547;SDS011;12713;51.624;4.924;2023-11-19T08:02:45;44.95;;;8.02;;
24547;SDS011;12713;51.624;4.924;2023-11-19T08:05:11;39.80;;;7.72;;
24547;SDS011;12713;51.624;4.924;2023-11-19T08:07:37;42.83;;;8.75;;
24547;SDS011;12713;51.624;4.924;2023-11-19T08:10:04;38.05;;;7.45;;
24547;SDS011;12713;51.624;4.924;2023-11-19T08:12:33;44.53;;;8.02;;
24547;SDS011;12713;51.624;4.924;2023-11-19T08:15:00;41.70;;;7.45;;
24547;SDS011;12713;51.624;4.924;2023-11-19T08:17:29;42.90;;;7.75;;
24547;SDS011;12713;51.624;4.924;2023-11-19T08:19:56;49.80;;;8.25;;
24547;SDS011;12713;51.624;4.924;2023-11-19T08:22:35;41.55;;;8.77;;
24547;SDS011;12713;51.624;4.924;2023-11-19T08:25:04;49.17;;;8.20;;
24547;SDS011;12713;51.624;4.924;2023-11-19T08:27:31;41.08;;;8.02;;
24547;SDS011;12713;51.624;4.924;2023-11-19T08:29:57;35.25;;;7.88;;
24547;SDS011;12713;51.624;4.924;2023-11-19T08:32:27;37.03;;;6.80;;
24547;SDS011;12713;51.624;4.924;2023-11-19T08:34:53;42.17;;;7.65;;
24547;SDS011;12713;51.624;4.924;2023-11-19T08:37:19;47.85;;;7.53;;
24547;SDS011;12713;51.624;4.924;2023-11-19T08:39:47;51.15;;;9.00;;
24547;SDS011;12713;51.624;4.924;2023-11-19T08:42:28;39.38;;;7.40;;
24547;SDS011;12713;51.624;4.924;2023-11-19T08:44:55;45.78;;;8.02;;
24547;SDS011;12713;51.624;4.924;2023-11-19T08:47:21;41.92;;;8.65;;
24547;SDS011;12713;51.624;4.924;2023-11-19T08:49:53;38.67;;;7.95;;
24547;SDS011;12713;51.624;4.924;2023-11-19T08:52:21;37.70;;;7.50;;
24547;SDS011;12713;51.624;4.924;2023-11-19T08:54:47;36.28;;;6.50;;
24547;SDS011;12713;51.624;4.924;2023-11-19T08:57:14;49.13;;;7.75;;
24547;SDS011;12713;51.624;4.924;2023-11-19T08:59:43;40.40;;;7.05;;
24547;SDS011;12713;51.624;4.924;2023-11-19T09:02:10;39.55;;;7.97;;
24547;SDS011;12713;51.624;4.924;2023-11-19T09:04:36;43.97;;;6.90;;
24547;SDS011;12713;51.624;4.924;2023-11-19T09:07:02;47.47;;;7.53;;
24547;SDS011;12713;51.624;4.924;2023-11-19T09:09:31;34.88;;;6.63;;
24547;SDS011;12713;51.624;4.924;2023-11-19T09:12:14;43.60;;;8.25;;
24547;SDS011;12713;51.624;4.924;2023-11-19T09:14:40;50.28;;;7.30;;
24547;SDS011;12713;51.624;4.924;2023-11-19T09:17:07;44.45;;;7.20;;
24547;SDS011;12713;51.624;4.924;2023-11-19T09:19:40;46.60;;;9.73;;
24547;SDS011;12713;51.624;4.924;2023-11-19T09:22:07;40.05;;;7.10;;
24547;SDS011;12713;51.624;4.924;2023-11-19T09:24:33;45.10;;;8.20;;
24547;SDS011;12713;51.624;4.924;2023-11-19T09:26:59;33.85;;;6.78;;
24547;SDS011;12713;51.624;4.924;2023-11-19T09:29:25;36.20;;;7.35;;
24547;SDS011;12713;51.624;4.924;2023-11-19T09:31:51;40.20;;;7.78;;
24547;SDS011;12713;51.624;4.924;2023-11-19T09:34:17;46.25;;;9.27;;
24547;SDS011;12713;51.624;4.924;2023-11-19T09:36:43;39.40;;;7.55;;
24547;SDS011;12713;51.624;4.924;2023-11-19T09:39:13;44.80;;;8.00;;
24547;SDS011;12713;51.624;4.924;2023-11-19T09:44:10;38.08;;;6.55;;
24547;SDS011;12713;51.624;4.924;2023-11-19T09:46:37;44.92;;;7.35;;
24547;SDS011;12713;51.624;4.924;2023-11-19T09:49:04;40.55;;;7.43;;
24547;SDS011;12713;51.624;4.924;2023-11-19T09:51:32;42.10;;;7.10;;
24547;SDS011;12713;51.624;4.924;2023-11-19T09:53:58;37.67;;;6.72;;
24547;SDS011;12713;51.624;4.924;2023-11-19T09:56:24;42.50;;;6.90;;
24547;SDS011;12713;51.624;4.924;2023-11-19T09:58:51;35.00;;;6.78;;
24547;SDS011;12713;51.624;4.924;2023-11-19T10:01:17;42.08;;;8.18;;
24547;SDS011;12713;51.624;4.924;2023-11-19T10:03:44;44.28;;;8.50;;
24547;SDS011;12713;51.624;4.924;2023-11-19T10:06:12;35.50;;;6.63;;
24547;SDS011;12713;51.624;4.924;2023-11-19T10:08:40;35.50;;;7.15;;
24547;SDS011;12713;51.624;4.924;2023-11-19T10:11:07;41.80;;;7.85;;
24547;SDS011;12713;51.624;4.924;2023-11-19T10:13:34;40.05;;;7.03;;
24547;SDS011;12713;51.624;4.924;2023-11-19T10:16:07;34.83;;;6.57;;
24547;SDS011;12713;51.624;4.924;2023-11-19T10:18:33;33.38;;;7.15;;
24547;SDS011;12713;51.624;4.924;2023-11-19T10:21:06;33.70;;;6.80;;
24547;SDS011;12713;51.624;4.924;2023-11-19T10:23:53;36.80;;;6.90;;
24547;SDS011;12713;51.624;4.924;2023-11-19T10:26:19;32.42;;;6.30;;
24547;SDS011;12713;51.624;4.924;2023-11-19T10:28:46;38.65;;;8.43;;
24547;SDS011;12713;51.624;4.924;2023-11-19T10:31:13;42.80;;;7.60;;
24547;SDS011;12713;51.624;4.924;2023-11-19T10:33:45;39.55;;;7.10;;
24547;SDS011;12713;51.624;4.924;2023-11-19T10:36:17;29.30;;;6.22;;
24547;SDS011;12713;51.624;4.924;2023-11-19T10:38:59;43.30;;;7.13;;
24547;SDS011;12713;51.624;4.924;2023-11-19T10:41:29;36.95;;;6.28;;
24547;SDS011;12713;51.624;4.924;2023-11-19T10:43:55;47.30;;;7.20;;
24547;SDS011;12713;51.624;4.924;2023-11-19T10:46:48;31.77;;;7.20;;
24547;SDS011;12713;51.624;4.924;2023-11-19T10:49:15;43.45;;;7.55;;
24547;SDS011;12713;51.624;4.924;2023-11-19T10:51:43;46.13;;;7.30;;
24547;SDS011;12713;51.624;4.924;2023-11-19T10:54:21;40.03;;;7.05;;
24547;SDS011;12713;51.624;4.924;2023-11-19T10:57:01;43.08;;;7.80;;
24547;SDS011;12713;51.624;4.924;2023-11-19T10:59:31;33.72;;;6.28;;
24547;SDS011;12713;51.624;4.924;2023-11-19T11:01:57;36.53;;;6.22;;
24547;SDS011;12713;51.624;4.924;2023-11-19T11:04:24;28.73;;;5.50;;
24547;SDS011;12713;51.624;4.924;2023-11-19T11:06:56;23.85;;;5.03;;
24547;SDS011;12713;51.624;4.924;2023-11-19T11:09:26;30.45;;;4.57;;
24547;SDS011;12713;51.624;4.924;2023-11-19T11:11:56;22.95;;;4.90;;
24547;SDS011;12713;51.624;4.924;2023-11-19T11:14:25;25.80;;;5.50;;
24547;SDS011;12713;51.624;4.924;2023-11-19T11:16:55;27.45;;;5.05;;
24547;SDS011;12713;51.624;4.924;2023-11-19T11:22:22;28.95;;;5.65;;
24547;SDS011;12713;51.624;4.924;2023-11-19T11:30:14;29.60;;;5.72;;
24547;SDS011;12713;51.624;4.924;2023-11-19T11:33:05;24.42;;;5.22;;
24547;SDS011;12713;51.624;4.924;2023-11-19T11:35:46;27.23;;;5.07;;
24547;SDS011;12713;51.624;4.924;2023-11-19T11:38:35;24.98;;;6.07;;
24547;SDS011;12713;51.624;4.924;2023-11-19T11:41:21;32.53;;;6.70;;
24547;SDS011;12713;51.624;4.924;2023-11-19T11:43:51;32.22;;;6.65;;
24547;SDS011;12713;51.624;4.924;2023-11-19T11:49:00;38.38;;;6.50;;
24547;SDS011;12713;51.624;4.924;2023-11-19T11:54:11;27.83;;;6.32;;
24547;SDS011;12713;51.624;4.924;2023-11-19T11:57:01;28.80;;;6.72;;
24547;SDS011;12713;51.624;4.924;2023-11-19T11:59:31;32.33;;;6.47;;
24547;SDS011;12713;51.624;4.924;2023-11-19T12:01:58;34.35;;;6.80;;
24547;SDS011;12713;51.624;4.924;2023-11-19T12:04:27;35.40;;;6.30;;
24547;SDS011;12713;51.624;4.924;2023-11-19T12:09:41;29.35;;;6.10;;
24547;SDS011;12713;51.624;4.924;2023-11-19T12:12:08;34.83;;;6.60;;
24547;SDS011;12713;51.624;4.924;2023-11-19T12:20:09;43.40;;;7.03;;
24547;SDS011;12713;51.624;4.924;2023-11-19T12:22:39;31.73;;;6.80;;
24547;SDS011;12713;51.624;4.924;2023-11-19T12:25:12;37.22;;;7.18;;
24547;SDS011;12713;51.624;4.924;2023-11-19T12:30:05;36.08;;;7.18;;
24547;SDS011;12713;51.624;4.924;2023-11-19T12:32:41;29.52;;;6.25;;
24547;SDS011;12713;51.624;4.924;2023-11-19T12:35:07;31.40;;;6.53;;
24547;SDS011;12713;51.624;4.924;2023-11-19T12:37:46;30.50;;;6.22;;
24547;SDS011;12713;51.624;4.924;2023-11-19T12:40:13;36.47;;;7.07;;
24547;SDS011;12713;51.624;4.924;2023-11-19T12:42:40;34.83;;;6.80;;
24547;SDS011;12713;51.624;4.924;2023-11-19T12:45:06;35.97;;;6.88;;
24547;SDS011;12713;51.624;4.924;2023-11-19T12:47:35;35.83;;;8.43;;
24547;SDS011;12713;51.624;4.924;2023-11-19T12:50:02;32.85;;;6.88;;
24547;SDS011;12713;51.624;4.924;2023-11-19T12:52:29;35.53;;;8.07;;
24547;SDS011;12713;51.624;4.924;2023-11-19T12:54:55;30.73;;;8.40;;
24547;SDS011;12713;51.624;4.924;2023-11-19T12:57:35;29.25;;;7.00;;
24547;SDS011;12713;51.624;4.924;2023-11-19T13:00:01;35.47;;;7.57;;
24547;SDS011;12713;51.624;4.924;2023-11-19T13:02:46;32.00;;;6.63;;
24547;SDS011;12713;51.624;4.924;2023-11-19T13:05:20;23.67;;;6.18;;
24547;SDS011;12713;51.624;4.924;2023-11-19T13:07:46;31.38;;;6.38;;
24547;SDS011;12713;51.624;4.924;2023-11-19T13:10:12;25.05;;;5.60;;
24547;SDS011;12713;51.624;4.924;2023-11-19T13:12:38;37.22;;;7.40;;
24547;SDS011;12713;51.624;4.924;2023-11-19T13:15:05;22.90;;;5.75;;
24547;SDS011;12713;51.624;4.924;2023-11-19T13:17:33;29.67;;;6.60;;
24547;SDS011;12713;51.624;4.924;2023-11-19T13:19:59;32.15;;;7.22;;
24547;SDS011;12713;51.624;4.924;2023-11-19T13:22:25;28.35;;;4.75;;
24547;SDS011;12713;51.624;4.924;2023-11-19T13:24:52;28.77;;;5.60;;
24547;SDS011;12713;51.624;4.924;2023-11-19T13:27:18;28.90;;;5.60;;
24547;SDS011;12713;51.624;4.924;2023-11-19T13:29:44;34.08;;;6.78;;
24547;SDS011;12713;51.624;4.924;2023-11-19T13:32:10;30.77;;;5.88;;
24547;SDS011;12713;51.624;4.924;2023-11-19T13:34:44;33.13;;;6.00;;
24547;SDS011;12713;51.624;4.924;2023-11-19T13:37:10;33.78;;;6.35;;
24547;SDS011;12713;51.624;4.924;2023-11-19T13:39:36;36.42;;;6.32;;
24547;SDS011;12713;51.624;4.924;2023-11-19T13:42:04;34.75;;;6.30;;
24547;SDS011;12713;51.624;4.924;2023-11-19T13:44:30;28.38;;;5.60;;
24547;SDS011;12713;51.624;4.924;2023-11-19T13:46:56;32.75;;;5.85;;
24547;SDS011;12713;51.624;4.924;2023-11-19T13:49:22;26.92;;;5.28;;
24547;SDS011;12713;51.624;4.924;2023-11-19T13:51:49;33.25;;;5.45;;
24547;SDS011;12713;51.624;4.924;2023-11-19T13:54:15;33.65;;;6.93;;
24547;SDS011;12713;51.624;4.924;2023-11-19T13:56:43;25.25;;;5.40;;
24547;SDS011;12713;51.624;4.924;2023-11-19T13:59:11;26.30;;;5.05;;
24547;SDS011;12713;51.624;4.924;2023-11-19T14:01:37;27.67;;;6.55;;
24547;SDS011;12713;51.624;4.924;2023-11-19T14:04:03;20.80;;;5.63;;
24547;SDS011;12713;51.624;4.924;2023-11-19T14:06:31;35.75;;;7.05;;
24547;SDS011;12713;51.624;4.924;2023-11-19T14:08:59;29.70;;;6.00;;
24547;SDS011;12713;51.624;4.924;2023-11-19T14:11:25;31.00;;;6.15;;
24547;SDS011;12713;51.624;4.924;2023-11-19T14:13:51;31.95;;;6.40;;
24547;SDS011;12713;51.624;4.924;2023-11-19T14:16:17;33.55;;;6.20;;
24547;SDS011;12713;51.624;4.924;2023-11-19T14:18:46;35.90;;;6.45;;
24547;SDS011;12713;51.624;4.924;2023-11-19T14:21:14;25.05;;;5.60;;
24547;SDS011;12713;51.624;4.924;2023-11-19T14:23:40;24.83;;;5.68;;
24547;SDS011;12713;51.624;4.924;2023-11-19T14:26:06;24.38;;;5.00;;
24547;SDS011;12713;51.624;4.924;2023-11-19T14:28:35;25.50;;;4.75;;
24547;SDS011;12713;51.624;4.924;2023-11-19T14:31:04;24.08;;;5.25;;
24547;SDS011;12713;51.624;4.924;2023-11-19T14:33:30;34.17;;;5.88;;
24547;SDS011;12713;51.624;4.924;2023-11-19T14:36:01;30.13;;;6.82;;
24547;SDS011;12713;51.624;4.924;2023-11-19T14:38:27;30.15;;;6.18;;
24547;SDS011;12713;51.624;4.924;2023-11-19T14:40:53;28.92;;;5.68;;
24547;SDS011;12713;51.624;4.924;2023-11-19T14:43:19;26.65;;;5.13;;
24547;SDS011;12713;51.624;4.924;2023-11-19T14:45:45;25.52;;;4.90;;
24547;SDS011;12713;51.624;4.924;2023-11-19T14:48:11;21.98;;;5.18;;
24547;SDS011;12713;51.624;4.924;2023-11-19T14:50:37;25.92;;;5.55;;
24547;SDS011;12713;51.624;4.924;2023-11-19T14:53:04;26.08;;;6.25;;
24547;SDS011;12713;51.624;4.924;2023-11-19T14:55:30;27.65;;;5.43;;
24547;SDS011;12713;51.624;4.924;2023-11-19T14:57:55;25.27;;;5.22;;
24547;SDS011;12713;51.624;4.924;2023-11-19T15:00:22;30.77;;;5.00;;
24547;SDS011;12713;51.624;4.924;2023-11-19T15:02:48;25.95;;;4.85;;
24547;SDS011;12713;51.624;4.924;2023-11-19T15:05:14;27.42;;;5.38;;
24547;SDS011;12713;51.624;4.924;2023-11-19T15:07:40;31.58;;;5.07;;